sensor_id;sensor_type;location;lat;lon;timestamp;P1;durP1;ratioP1;P2;durP2;ratioP2
673;SDS011;319;48.764;9.174;2024-02-15T00:02:10;1.00;;;1.00;;
673;SDS011;319;48.764;9.174;2024-02-15T00:04:37;0.93;;;0.93;;
673;SDS011;319;48.764;9.174;2024-02-15T00:07:05;1.00;;;1.00;;
673;SDS011;319;48.764;9.174;2024-02-15T00:09:32;1.10;;;1.10;;
673;SDS011;319;48.764;9.174;2024-02-15T00:12:00;1.10;;;1.10;;
673;SDS011;319;48.764;9.174;2024-02-15T00:14:27;1.00;;;1.00;;
673;SDS011;319;48.764;9.174;2024-02-15T00:16:54;1.00;;;1.00;;
673;SDS011;319;48.764;9.174;2024-02-15T00:19:21;0.93;;;0.93;;
673;SDS011;319;48.764;9.174;2024-02-15T00:21:48;1.00;;;1.00;;
673;SDS011;319;48.764;9.174;2024-02-15T00:24:16;1.00;;;1.00;;
673;SDS011;319;48.764;9.174;2024-02-15T00:26:43;1.00;;;1.00;;
673;SDS011;319;48.764;9.174;2024-02-15T00:29:10;1.10;;;1.10;;
673;SDS011;319;48.764;9.174;2024-02-15T00:31:36;1.00;;;1.00;;
673;SDS011;319;48.764;9.174;2024-02-15T00:34:04;1.00;;;1.00;;
673;SDS011;319;48.764;9.174;2024-02-15T00:36:31;1.00;;;1.00;;
673;SDS011;319;48.764;9.174;2024-02-15T00:38:58;1.10;;;1.10;;
673;SDS011;319;48.764;9.174;2024-02-15T00:41:26;1.00;;;1.00;;
673;SDS011;319;48.764;9.174;2024-02-15T00:43:54;1.00;;;1.00;;
673;SDS011;319;48.764;9.174;2024-02-15T00:46:20;1.00;;;1.00;;
673;SDS011;319;48.764;9.174;2024-02-15T00:48:47;1.00;;;1.00;;
673;SDS011;319;48.764;9.174;2024-02-15T00:51:14;0.90;;;0.90;;
673;SDS011;319;48.764;9.174;2024-02-15T00:53:41;1.00;;;1.00;;
673;SDS011;319;48.764;9.174;2024-02-15T00:56:08;1.10;;;1.10;;
673;SDS011;319;48.764;9.174;2024-02-15T00:58:36;1.10;;;1.10;;
673;SDS011;319;48.764;9.174;2024-02-15T01:01:03;1.00;;;1.00;;
673;SDS011;319;48.764;9.174;2024-02-15T01:03:30;1.10;;;1.10;;
673;SDS011;319;48.764;9.174;2024-02-15T01:05:57;1.10;;;1.10;;
673;SDS011;319;48.764;9.174;2024-02-15T01:08:24;1.00;;;1.00;;
673;SDS011;319;48.764;9.174;2024-02-15T01:10:51;1.00;;;1.00;;
673;SDS011;319;48.764;9.174;2024-02-15T01:13:19;1.10;;;1.10;;
673;SDS011;319;48.764;9.174;2024-02-15T01:15:47;1.10;;;1.10;;
673;SDS011;319;48.764;9.174;2024-02-15T01:18:15;1.00;;;1.00;;
673;SDS011;319;48.764;9.174;2024-02-15T01:20:42;1.00;;;1.00;;
673;SDS011;319;48.764;9.174;2024-02-15T01:23:10;1.00;;;1.00;;
673;SDS011;319;48.764;9.174;2024-02-15T01:25:36;1.00;;;1.00;;
673;SDS011;319;48.764;9.174;2024-02-15T01:28:05;1.10;;;1.10;;
673;SDS011;319;48.764;9.174;2024-02-15T01:30:32;1.00;;;1.00;;
673;SDS011;319;48.764;9.174;2024-02-15T01:33:00;1.10;;;1.10;;
673;SDS011;319;48.764;9.174;2024-02-15T01:35:27;1.20;;;1.20;;
673;SDS011;319;48.764;9.174;2024-02-15T01:37:54;1.10;;;1.10;;
673;SDS011;319;48.764;9.174;2024-02-15T01:40:21;1.00;;;1.00;;
673;SDS011;319;48.764;9.174;2024-02-15T01:42:48;1.10;;;1.10;;
673;SDS011;319;48.764;9.174;2024-02-15T01:45:15;1.00;;;1.00;;
673;SDS011;319;48.764;9.174;2024-02-15T01:47:42;1.10;;;1.10;;
673;SDS011;319;48.764;9.174;2024-02-15T01:50:11;1.10;;;1.10;;
673;SDS011;319;48.764;9.174;2024-02-15T01:52:40;1.00;;;1.00;;
673;SDS011;319;48.764;9.174;2024-02-15T01:55:08;1.10;;;1.10;;
673;SDS011;319;48.764;9.174;2024-02-15T01:57:36;0.93;;;0.93;;
673;SDS011;319;48.764;9.174;2024-02-15T02:00:04;1.00;;;1.00;;
673;SDS011;319;48.764;9.174;2024-02-15T02:02:33;1.10;;;1.10;;
673;SDS011;319;48.764;9.174;2024-02-15T02:05:04;1.10;;;1.10;;
673;SDS011;319;48.764;9.174;2024-02-15T02:07:33;1.10;;;1.10;;
673;SDS011;319;48.764;9.174;2024-02-15T02:10:00;1.00;;;1.00;;
673;SDS011;319;48.764;9.174;2024-02-15T02:12:28;1.00;;;1.00;;
673;SDS011;319;48.764;9.174;2024-02-15T02:14:55;1.00;;;1.00;;
673;SDS011;319;48.764;9.174;2024-02-15T02:17:22;1.10;;;1.10;;
673;SDS011;319;48.764;9.174;2024-02-15T02:19:49;1.10;;;1.10;;
673;SDS011;319;48.764;9.174;2024-02-15T02:22:16;1.03;;;1.03;;
673;SDS011;319;48.764;9.174;2024-02-15T02:24:54;1.10;;;1.10;;
673;SDS011;319;48.764;9.174;2024-02-15T02:27:26;1.10;;;1.10;;
673;SDS011;319;48.764;9.174;2024-02-15T02:29:53;1.13;;;1.13;;
673;SDS011;319;48.764;9.174;2024-02-15T02:32:21;1.03;;;1.03;;
673;SDS011;319;48.764;9.174;2024-02-15T02:34:47;1.10;;;1.10;;
673;SDS011;319;48.764;9.174;2024-02-15T02:37:14;1.10;;;1.10;;
673;SDS011;319;48.764;9.174;2024-02-15T02:39:42;1.10;;;1.10;;
673;SDS011;319;48.764;9.174;2024-02-15T02:42:10;1.10;;;1.10;;
673;SDS011;319;48.764;9.174;2024-02-15T02:44:37;1.10;;;1.10;;
673;SDS011;319;48.764;9.174;2024-02-15T02:47:04;1.00;;;1.00;;
673;SDS011;319;48.764;9.174;2024-02-15T02:49:31;1.00;;;1.00;;
673;SDS011;319;48.764;9.174;2024-02-15T02:51:58;1.10;;;1.10;;
673;SDS011;319;48.764;9.174;2024-02-15T02:54:25;1.10;;;1.10;;
673;SDS011;319;48.764;9.174;2024-02-15T02:56:54;1.10;;;1.10;;
673;SDS011;319;48.764;9.174;2024-02-15T02:59:22;1.10;;;1.10;;
673;SDS011;319;48.764;9.174;2024-02-15T03:01:50;1.00;;;1.00;;
673;SDS011;319;48.764;9.174;2024-02-15T03:04:18;1.10;;;1.10;;
673;SDS011;319;48.764;9.174;2024-02-15T03:06:44;1.20;;;1.20;;
673;SDS011;319;48.764;9.174;2024-02-15T03:09:12;1.10;;;1.10;;
673;SDS011;319;48.764;9.174;2024-02-15T03:11:39;1.10;;;1.10;;
673;SDS011;319;48.764;9.174;2024-02-15T03:14:07;1.10;;;1.10;;
673;SDS011;319;48.764;9.174;2024-02-15T03:16:35;1.10;;;1.10;;
673;SDS011;319;48.764;9.174;2024-02-15T03:19:03;1.00;;;1.00;;
673;SDS011;319;48.764;9.174;2024-02-15T03:21:30;1.20;;;1.20;;
673;SDS011;319;48.764;9.174;2024-02-15T03:23:56;1.10;;;1.10;;
673;SDS011;319;48.764;9.174;2024-02-15T03:26:29;1.10;;;1.10;;
673;SDS011;319;48.764;9.174;2024-02-15T03:29:02;1.10;;;1.10;;
673;SDS011;319;48.764;9.174;2024-02-15T03:31:29;1.20;;;1.20;;
673;SDS011;319;48.764;9.174;2024-02-15T03:33:58;1.00;;;1.00;;
673;SDS011;319;48.764;9.174;2024-02-15T03:36:25;1.10;;;1.10;;
673;SDS011;319;48.764;9.174;2024-02-15T03:38:54;1.10;;;1.10;;
673;SDS011;319;48.764;9.174;2024-02-15T03:41:21;1.10;;;1.10;;
673;SDS011;319;48.764;9.174;2024-02-15T03:43:48;1.10;;;1.10;;
673;SDS011;319;48.764;9.174;2024-02-15T03:46:14;1.10;;;1.10;;
673;SDS011;319;48.764;9.174;2024-02-15T03:48:42;1.13;;;1.13;;
673;SDS011;319;48.764;9.174;2024-02-15T03:51:17;1.13;;;1.13;;
673;SDS011;319;48.764;9.174;2024-02-15T03:53:45;1.10;;;1.10;;
673;SDS011;319;48.764;9.174;2024-02-15T03:56:12;1.10;;;1.10;;
673;SDS011;319;48.764;9.174;2024-02-15T03:58:39;1.10;;;1.10;;
673;SDS011;319;48.764;9.174;2024-02-15T04:01:06;1.10;;;1.10;;
673;SDS011;319;48.764;9.174;2024-02-15T04:03:34;1.10;;;1.10;;
673;SDS011;319;48.764;9.174;2024-02-15T04:06:01;1.10;;;1.10;;
673;SDS011;319;48.764;9.174;2024-02-15T04:08:30;1.10;;;1.10;;
673;SDS011;319;48.764;9.174;2024-02-15T04:10:58;1.07;;;1.07;;
673;SDS011;319;48.764;9.174;2024-02-15T04:13:25;1.10;;;1.10;;
673;SDS011;319;48.764;9.174;2024-02-15T04:15:52;1.00;;;1.00;;
673;SDS011;319;48.764;9.174;2024-02-15T04:18:19;1.10;;;1.10;;
673;SDS011;319;48.764;9.174;2024-02-15T04:20:45;1.10;;;1.10;;
673;SDS011;319;48.764;9.174;2024-02-15T04:23:14;1.10;;;1.10;;
673;SDS011;319;48.764;9.174;2024-02-15T04:25:42;1.10;;;1.10;;
673;SDS011;319;48.764;9.174;2024-02-15T04:28:15;1.10;;;1.10;;
673;SDS011;319;48.764;9.174;2024-02-15T04:30:42;1.10;;;1.10;;
673;SDS011;319;48.764;9.174;2024-02-15T04:33:11;1.10;;;1.10;;
673;SDS011;319;48.764;9.174;2024-02-15T04:35:40;1.10;;;1.10;;
673;SDS011;319;48.764;9.174;2024-02-15T04:38:07;1.00;;;1.00;;
673;SDS011;319;48.764;9.174;2024-02-15T04:40:34;1.10;;;1.10;;
673;SDS011;319;48.764;9.174;2024-02-15T04:43:04;1.00;;;1.00;;
673;SDS011;319;48.764;9.174;2024-02-15T04:45:31;1.10;;;1.10;;
673;SDS011;319;48.764;9.174;2024-02-15T04:47:58;1.00;;;1.00;;
673;SDS011;319;48.764;9.174;2024-02-15T04:50:27;1.10;;;1.10;;
673;SDS011;319;48.764;9.174;2024-02-15T04:52:54;1.10;;;1.10;;
673;SDS011;319;48.764;9.174;2024-02-15T04:55:21;1.10;;;1.10;;
673;SDS011;319;48.764;9.174;2024-02-15T04:57:48;1.10;;;1.10;;
673;SDS011;319;48.764;9.174;2024-02-15T05:00:21;1.00;;;1.00;;
673;SDS011;319;48.764;9.174;2024-02-15T05:02:50;1.00;;;1.00;;
673;SDS011;319;48.764;9.174;2024-02-15T05:05:17;1.10;;;1.10;;
673;SDS011;319;48.764;9.174;2024-02-15T05:07:45;1.10;;;1.10;;
673;SDS011;319;48.764;9.174;2024-02-15T05:10:14;1.10;;;1.10;;
673;SDS011;319;48.764;9.174;2024-02-15T05:12:41;1.03;;;1.03;;
673;SDS011;319;48.764;9.174;2024-02-15T05:15:09;1.10;;;1.10;;
673;SDS011;319;48.764;9.174;2024-02-15T05:17:38;0.97;;;0.97;;
673;SDS011;319;48.764;9.174;2024-02-15T05:20:07;1.10;;;1.10;;
673;SDS011;319;48.764;9.174;2024-02-15T05:22:37;1.10;;;1.10;;
673;SDS011;319;48.764;9.174;2024-02-15T05:25:05;1.10;;;1.10;;
673;SDS011;319;48.764;9.174;2024-02-15T05:27:33;1.10;;;1.10;;
673;SDS011;319;48.764;9.174;2024-02-15T05:30:01;1.00;;;1.00;;
673;SDS011;319;48.764;9.174;2024-02-15T05:32:31;1.10;;;1.10;;
673;SDS011;319;48.764;9.174;2024-02-15T05:35:01;1.10;;;1.10;;
673;SDS011;319;48.764;9.174;2024-02-15T05:37:28;1.10;;;1.10;;
673;SDS011;319;48.764;9.174;2024-02-15T05:39:55;1.10;;;1.10;;
673;SDS011;319;48.764;9.174;2024-02-15T05:42:22;1.10;;;1.10;;
673;SDS011;319;48.764;9.174;2024-02-15T05:44:50;1.10;;;1.10;;
673;SDS011;319;48.764;9.174;2024-02-15T05:47:17;1.00;;;1.00;;
673;SDS011;319;48.764;9.174;2024-02-15T05:49:44;1.10;;;1.10;;
673;SDS011;319;48.764;9.174;2024-02-15T05:52:16;1.07;;;1.07;;
673;SDS011;319;48.764;9.174;2024-02-15T05:54:45;1.00;;;1.00;;
673;SDS011;319;48.764;9.174;2024-02-15T05:57:12;1.10;;;1.10;;
673;SDS011;319;48.764;9.174;2024-02-15T05:59:38;1.07;;;1.07;;
673;SDS011;319;48.764;9.174;2024-02-15T06:02:06;1.00;;;1.00;;
673;SDS011;319;48.764;9.174;2024-02-15T06:04:33;1.00;;;1.00;;
673;SDS011;319;48.764;9.174;2024-02-15T06:07:00;1.00;;;1.00;;
673;SDS011;319;48.764;9.174;2024-02-15T06:09:29;1.00;;;1.00;;
673;SDS011;319;48.764;9.174;2024-02-15T06:11:58;1.00;;;1.00;;
673;SDS011;319;48.764;9.174;2024-02-15T06:14:25;1.10;;;1.10;;
673;SDS011;319;48.764;9.174;2024-02-15T06:16:52;1.10;;;1.10;;
673;SDS011;319;48.764;9.174;2024-02-15T06:19:20;1.00;;;1.00;;
673;SDS011;319;48.764;9.174;2024-02-15T06:21:48;1.10;;;1.10;;
673;SDS011;319;48.764;9.174;2024-02-15T06:24:14;1.00;;;1.00;;
673;SDS011;319;48.764;9.174;2024-02-15T06:26:43;0.90;;;0.90;;
673;SDS011;319;48.764;9.174;2024-02-15T06:29:10;1.00;;;1.00;;
673;SDS011;319;48.764;9.174;2024-02-15T06:31:54;1.00;;;1.00;;
673;SDS011;319;48.764;9.174;2024-02-15T06:34:39;1.10;;;1.10;;
673;SDS011;319;48.764;9.174;2024-02-15T06:37:35;1.10;;;1.10;;
673;SDS011;319;48.764;9.174;2024-02-15T06:40:20;1.20;;;1.20;;
673;SDS011;319;48.764;9.174;2024-02-15T06:42:49;1.10;;;1.10;;
673;SDS011;319;48.764;9.174;2024-02-15T06:45:16;1.00;;;1.00;;
673;SDS011;319;48.764;9.174;2024-02-15T06:47:45;1.10;;;1.10;;
673;SDS011;319;48.764;9.174;2024-02-15T06:50:12;1.10;;;1.10;;
673;SDS011;319;48.764;9.174;2024-02-15T06:52:39;1.07;;;1.07;;
673;SDS011;319;48.764;9.174;2024-02-15T06:55:06;1.00;;;1.00;;
673;SDS011;319;48.764;9.174;2024-02-15T06:57:37;1.10;;;1.10;;
673;SDS011;319;48.764;9.174;2024-02-15T07:00:08;1.10;;;1.10;;
673;SDS011;319;48.764;9.174;2024-02-15T07:02:40;1.10;;;1.10;;
673;SDS011;319;48.764;9.174;2024-02-15T07:05:09;1.00;;;1.00;;
673;SDS011;319;48.764;9.174;2024-02-15T07:07:36;1.00;;;1.00;;
673;SDS011;319;48.764;9.174;2024-02-15T07:10:05;1.03;;;1.03;;
673;SDS011;319;48.764;9.174;2024-02-15T07:12:33;1.10;;;1.10;;
673;SDS011;319;48.764;9.174;2024-02-15T07:15:00;1.00;;;1.00;;
673;SDS011;319;48.764;9.174;2024-02-15T07:17:33;1.10;;;1.10;;
673;SDS011;319;48.764;9.174;2024-02-15T07:20:02;1.20;;;1.20;;
673;SDS011;319;48.764;9.174;2024-02-15T07:22:30;1.10;;;1.10;;
673;SDS011;319;48.764;9.174;2024-02-15T07:24:57;1.07;;;1.07;;
673;SDS011;319;48.764;9.174;2024-02-15T07:27:24;1.10;;;1.10;;
673;SDS011;319;48.764;9.174;2024-02-15T07:29:51;1.10;;;1.10;;
673;SDS011;319;48.764;9.174;2024-02-15T07:32:19;1.10;;;1.10;;
673;SDS011;319;48.764;9.174;2024-02-15T07:34:47;1.10;;;1.10;;
673;SDS011;319;48.764;9.174;2024-02-15T07:37:14;1.10;;;1.10;;
673;SDS011;319;48.764;9.174;2024-02-15T07:39:41;1.10;;;1.10;;
673;SDS011;319;48.764;9.174;2024-02-15T07:42:08;1.00;;;1.00;;
673;SDS011;319;48.764;9.174;2024-02-15T07:44:35;1.00;;;1.00;;
673;SDS011;319;48.764;9.174;2024-02-15T07:47:02;1.00;;;1.00;;
673;SDS011;319;48.764;9.174;2024-02-15T07:49:30;1.00;;;1.00;;
673;SDS011;319;48.764;9.174;2024-02-15T07:52:03;1.10;;;1.10;;
673;SDS011;319;48.764;9.174;2024-02-15T07:54:30;1.00;;;1.00;;
673;SDS011;319;48.764;9.174;2024-02-15T07:56:58;1.10;;;1.10;;
673;SDS011;319;48.764;9.174;2024-02-15T07:59:25;1.10;;;1.10;;
673;SDS011;319;48.764;9.174;2024-02-15T08:01:53;1.10;;;1.10;;
673;SDS011;319;48.764;9.174;2024-02-15T08:04:20;1.10;;;1.10;;
673;SDS011;319;48.764;9.174;2024-02-15T08:06:48;1.10;;;1.10;;
673;SDS011;319;48.764;9.174;2024-02-15T08:09:18;1.00;;;1.00;;
673;SDS011;319;48.764;9.174;2024-02-15T08:11:49;1.10;;;1.10;;
673;SDS011;319;48.764;9.174;2024-02-15T08:14:16;1.10;;;1.10;;
673;SDS011;319;48.764;9.174;2024-02-15T08:16:45;1.00;;;1.00;;
673;SDS011;319;48.764;9.174;2024-02-15T08:19:12;1.00;;;1.00;;
673;SDS011;319;48.764;9.174;2024-02-15T08:21:39;1.20;;;1.20;;
673;SDS011;319;48.764;9.174;2024-02-15T08:24:11;1.10;;;1.10;;
673;SDS011;319;48.764;9.174;2024-02-15T08:26:42;1.10;;;1.10;;
673;SDS011;319;48.764;9.174;2024-02-15T08:29:10;1.10;;;1.10;;
673;SDS011;319;48.764;9.174;2024-02-15T08:31:40;1.00;;;1.00;;
673;SDS011;319;48.764;9.174;2024-02-15T08:34:07;1.00;;;1.00;;
673;SDS011;319;48.764;9.174;2024-02-15T08:36:39;0.90;;;0.90;;
673;SDS011;319;48.764;9.174;2024-02-15T08:39:08;1.30;;;1.30;;
673;SDS011;319;48.764;9.174;2024-02-15T08:41:37;1.10;;;1.10;;
673;SDS011;319;48.764;9.174;2024-02-15T08:44:05;1.00;;;1.00;;
673;SDS011;319;48.764;9.174;2024-02-15T08:46:36;1.10;;;1.10;;
673;SDS011;319;48.764;9.174;2024-02-15T08:49:03;1.10;;;1.10;;
673;SDS011;319;48.764;9.174;2024-02-15T08:51:30;0.90;;;0.90;;
673;SDS011;319;48.764;9.174;2024-02-15T08:53:57;1.10;;;1.10;;
673;SDS011;319;48.764;9.174;2024-02-15T08:56:25;1.10;;;1.10;;
673;SDS011;319;48.764;9.174;2024-02-15T08:58:52;1.10;;;1.10;;
673;SDS011;319;48.764;9.174;2024-02-15T09:01:23;1.00;;;1.00;;
673;SDS011;319;48.764;9.174;2024-02-15T09:03:50;1.10;;;1.10;;
673;SDS011;319;48.764;9.174;2024-02-15T09:06:17;1.10;;;1.10;;
673;SDS011;319;48.764;9.174;2024-02-15T09:08:44;1.00;;;1.00;;
673;SDS011;319;48.764;9.174;2024-02-15T09:11:12;1.00;;;1.00;;
673;SDS011;319;48.764;9.174;2024-02-15T09:13:39;1.00;;;1.00;;
673;SDS011;319;48.764;9.174;2024-02-15T09:16:06;0.90;;;0.90;;
673;SDS011;319;48.764;9.174;2024-02-15T09:18:34;1.00;;;1.00;;
673;SDS011;319;48.764;9.174;2024-02-15T09:21:01;1.00;;;1.00;;
673;SDS011;319;48.764;9.174;2024-02-15T09:23:30;1.00;;;1.00;;
673;SDS011;319;48.764;9.174;2024-02-15T09:25:57;0.97;;;0.97;;
673;SDS011;319;48.764;9.174;2024-02-15T09:28:27;0.90;;;0.90;;
673;SDS011;319;48.764;9.174;2024-02-15T09:30:54;1.00;;;1.00;;
673;SDS011;319;48.764;9.174;2024-02-15T09:33:24;1.00;;;1.00;;
673;SDS011;319;48.764;9.174;2024-02-15T09:35:53;1.00;;;1.00;;
673;SDS011;319;48.764;9.174;2024-02-15T09:38:20;1.00;;;1.00;;
673;SDS011;319;48.764;9.174;2024-02-15T09:40:48;0.90;;;0.90;;
673;SDS011;319;48.764;9.174;2024-02-15T09:43:15;0.90;;;0.90;;
673;SDS011;319;48.764;9.174;2024-02-15T09:45:46;0.90;;;0.90;;
673;SDS011;319;48.764;9.174;2024-02-15T09:48:13;0.90;;;0.90;;
673;SDS011;319;48.764;9.174;2024-02-15T09:50:43;1.00;;;1.00;;
673;SDS011;319;48.764;9.174;2024-02-15T09:53:13;1.00;;;1.00;;
673;SDS011;319;48.764;9.174;2024-02-15T09:55:41;0.90;;;0.90;;
673;SDS011;319;48.764;9.174;2024-02-15T09:58:09;0.90;;;0.90;;
673;SDS011;319;48.764;9.174;2024-02-15T10:00:38;1.00;;;1.00;;
673;SDS011;319;48.764;9.174;2024-02-15T10:03:06;0.90;;;0.90;;
673;SDS011;319;48.764;9.174;2024-02-15T10:05:33;1.00;;;1.00;;
673;SDS011;319;48.764;9.174;2024-02-15T10:08:00;0.90;;;0.90;;
673;SDS011;319;48.764;9.174;2024-02-15T10:10:31;1.00;;;1.00;;
673;SDS011;319;48.764;9.174;2024-02-15T10:12:59;1.00;;;1.00;;
673;SDS011;319;48.764;9.174;2024-02-15T10:15:30;1.00;;;1.00;;
673;SDS011;319;48.764;9.174;2024-02-15T10:17:58;0.97;;;0.97;;
673;SDS011;319;48.764;9.174;2024-02-15T10:20:26;0.90;;;0.90;;
673;SDS011;319;48.764;9.174;2024-02-15T10:22:53;1.00;;;1.00;;
673;SDS011;319;48.764;9.174;2024-02-15T10:25:36;1.00;;;1.00;;
673;SDS011;319;48.764;9.174;2024-02-15T10:28:03;1.00;;;1.00;;
673;SDS011;319;48.764;9.174;2024-02-15T10:30:32;0.90;;;0.90;;
673;SDS011;319;48.764;9.174;2024-02-15T10:33:00;1.10;;;1.10;;
673;SDS011;319;48.764;9.174;2024-02-15T10:35:27;1.10;;;1.10;;
673;SDS011;319;48.764;9.174;2024-02-15T10:38:04;1.00;;;1.00;;
673;SDS011;319;48.764;9.174;2024-02-15T10:40:33;0.90;;;0.90;;
673;SDS011;319;48.764;9.174;2024-02-15T10:43:03;0.93;;;0.93;;
673;SDS011;319;48.764;9.174;2024-02-15T10:45:32;1.00;;;1.00;;
673;SDS011;319;48.764;9.174;2024-02-15T10:48:02;0.90;;;0.90;;
673;SDS011;319;48.764;9.174;2024-02-15T10:50:30;1.00;;;1.00;;
673;SDS011;319;48.764;9.174;2024-02-15T10:52:57;1.00;;;1.00;;
673;SDS011;319;48.764;9.174;2024-02-15T10:55:27;0.90;;;0.90;;
673;SDS011;319;48.764;9.174;2024-02-15T10:58:05;1.00;;;1.00;;
673;SDS011;319;48.764;9.174;2024-02-15T11:00:33;1.00;;;1.00;;
673;SDS011;319;48.764;9.174;2024-02-15T11:03:08;1.00;;;1.00;;
673;SDS011;319;48.764;9.174;2024-02-15T11:05:45;1.00;;;1.00;;
673;SDS011;319;48.764;9.174;2024-02-15T11:08:12;0.90;;;0.90;;
673;SDS011;319;48.764;9.174;2024-02-15T11:10:42;1.00;;;1.00;;
673;SDS011;319;48.764;9.174;2024-02-15T11:13:11;0.93;;;0.93;;
673;SDS011;319;48.764;9.174;2024-02-15T11:15:43;1.00;;;1.00;;
673;SDS011;319;48.764;9.174;2024-02-15T11:21:10;0.90;;;0.90;;
673;SDS011;319;48.764;9.174;2024-02-15T11:23:37;1.00;;;1.00;;
673;SDS011;319;48.764;9.174;2024-02-15T11:26:05;0.93;;;0.93;;
673;SDS011;319;48.764;9.174;2024-02-15T11:28:43;1.00;;;1.00;;
673;SDS011;319;48.764;9.174;2024-02-15T11:37:25;0.93;;;0.93;;
673;SDS011;319;48.764;9.174;2024-02-15T11:40:18;1.00;;;1.00;;
673;SDS011;319;48.764;9.174;2024-02-15T11:42:48;1.00;;;1.00;;
673;SDS011;319;48.764;9.174;2024-02-15T11:45:17;1.10;;;1.10;;
673;SDS011;319;48.764;9.174;2024-02-15T11:47:47;1.00;;;1.00;;
673;SDS011;319;48.764;9.174;2024-02-15T11:50:16;0.90;;;0.90;;
673;SDS011;319;48.764;9.174;2024-02-15T11:52:45;1.00;;;1.00;;
673;SDS011;319;48.764;9.174;2024-02-15T11:55:14;1.00;;;1.00;;
673;SDS011;319;48.764;9.174;2024-02-15T11:57:44;1.00;;;1.00;;
673;SDS011;319;48.764;9.174;2024-02-15T12:00:29;1.00;;;1.00;;
673;SDS011;319;48.764;9.174;2024-02-15T12:03:14;0.93;;;0.93;;
673;SDS011;319;48.764;9.174;2024-02-15T12:06:02;0.97;;;0.97;;
673;SDS011;319;48.764;9.174;2024-02-15T12:08:46;1.00;;;1.00;;
673;SDS011;319;48.764;9.174;2024-02-15T12:11:31;0.90;;;0.90;;
673;SDS011;319;48.764;9.174;2024-02-15T12:14:16;1.00;;;1.00;;
673;SDS011;319;48.764;9.174;2024-02-15T12:17:03;0.90;;;0.90;;
673;SDS011;319;48.764;9.174;2024-02-15T12:19:49;0.90;;;0.90;;
673;SDS011;319;48.764;9.174;2024-02-15T12:22:19;1.00;;;1.00;;
673;SDS011;319;48.764;9.174;2024-02-15T12:24:55;1.00;;;1.00;;
673;SDS011;319;48.764;9.174;2024-02-15T12:27:22;1.00;;;1.00;;
673;SDS011;319;48.764;9.174;2024-02-15T12:29:52;1.00;;;1.00;;
673;SDS011;319;48.764;9.174;2024-02-15T12:32:22;0.90;;;0.90;;
673;SDS011;319;48.764;9.174;2024-02-15T12:34:50;1.00;;;1.00;;
673;SDS011;319;48.764;9.174;2024-02-15T12:37:17;1.00;;;1.00;;
673;SDS011;319;48.764;9.174;2024-02-15T12:39:46;13.77;;;13.43;;
673;SDS011;319;48.764;9.174;2024-02-15T12:42:14;13.40;;;13.10;;
673;SDS011;319;48.764;9.174;2024-02-15T12:44:43;13.63;;;13.33;;
673;SDS011;319;48.764;9.174;2024-02-15T12:47:20;13.53;;;13.23;;
673;SDS011;319;48.764;9.174;2024-02-15T12:49:49;15.37;;;14.97;;
673;SDS011;319;48.764;9.174;2024-02-15T12:52:32;12.40;;;12.10;;
673;SDS011;319;48.764;9.174;2024-02-15T12:55:13;12.43;;;12.13;;
673;SDS011;319;48.764;9.174;2024-02-15T12:57:41;13.70;;;13.30;;
673;SDS011;319;48.764;9.174;2024-02-15T13:00:10;12.90;;;12.60;;
673;SDS011;319;48.764;9.174;2024-02-15T13:02:44;14.33;;;13.93;;
673;SDS011;319;48.764;9.174;2024-02-15T13:05:12;14.77;;;14.37;;
673;SDS011;319;48.764;9.174;2024-02-15T13:07:39;13.60;;;13.23;;
673;SDS011;319;48.764;9.174;2024-02-15T13:10:06;14.30;;;13.90;;
673;SDS011;319;48.764;9.174;2024-02-15T13:12:34;13.50;;;13.17;;
673;SDS011;319;48.764;9.174;2024-02-15T13:15:03;12.40;;;12.10;;
673;SDS011;319;48.764;9.174;2024-02-15T13:17:32;12.17;;;11.87;;
673;SDS011;319;48.764;9.174;2024-02-15T13:20:01;12.73;;;12.43;;
673;SDS011;319;48.764;9.174;2024-02-15T13:22:30;12.00;;;11.70;;
673;SDS011;319;48.764;9.174;2024-02-15T13:24:58;12.77;;;12.47;;
673;SDS011;319;48.764;9.174;2024-02-15T13:27:25;12.00;;;11.70;;
673;SDS011;319;48.764;9.174;2024-02-15T13:29:52;12.43;;;12.13;;
673;SDS011;319;48.764;9.174;2024-02-15T13:32:20;11.70;;;11.40;;
673;SDS011;319;48.764;9.174;2024-02-15T13:34:47;11.50;;;11.20;;
673;SDS011;319;48.764;9.174;2024-02-15T13:37:19;11.90;;;11.60;;
673;SDS011;319;48.764;9.174;2024-02-15T13:39:47;13.47;;;13.07;;
673;SDS011;319;48.764;9.174;2024-02-15T13:42:14;11.47;;;11.17;;
673;SDS011;319;48.764;9.174;2024-02-15T13:44:41;11.77;;;11.47;;
673;SDS011;319;48.764;9.174;2024-02-15T13:47:09;12.20;;;11.90;;
673;SDS011;319;48.764;9.174;2024-02-15T13:49:37;12.20;;;11.90;;
673;SDS011;319;48.764;9.174;2024-02-15T13:52:04;11.40;;;11.10;;
673;SDS011;319;48.764;9.174;2024-02-15T13:54:33;11.60;;;11.30;;
673;SDS011;319;48.764;9.174;2024-02-15T13:57:00;12.17;;;11.87;;
673;SDS011;319;48.764;9.174;2024-02-15T13:59:27;11.53;;;11.23;;
673;SDS011;319;48.764;9.174;2024-02-15T14:01:55;12.53;;;12.23;;
673;SDS011;319;48.764;9.174;2024-02-15T14:04:31;11.47;;;11.17;;
673;SDS011;319;48.764;9.174;2024-02-15T14:07:03;12.30;;;12.00;;
673;SDS011;319;48.764;9.174;2024-02-15T14:09:30;11.80;;;11.50;;
673;SDS011;319;48.764;9.174;2024-02-15T14:11:58;11.13;;;10.83;;
673;SDS011;319;48.764;9.174;2024-02-15T14:14:29;12.10;;;11.80;;
673;SDS011;319;48.764;9.174;2024-02-15T14:16:56;11.50;;;11.20;;
673;SDS011;319;48.764;9.174;2024-02-15T14:19:23;14.47;;;14.07;;
673;SDS011;319;48.764;9.174;2024-02-15T14:21:51;14.60;;;14.20;;
673;SDS011;319;48.764;9.174;2024-02-15T14:24:20;14.10;;;13.70;;
673;SDS011;319;48.764;9.174;2024-02-15T14:26:48;13.80;;;13.40;;
673;SDS011;319;48.764;9.174;2024-02-15T14:29:16;14.60;;;14.20;;
673;SDS011;319;48.764;9.174;2024-02-15T14:31:52;14.50;;;14.10;;
673;SDS011;319;48.764;9.174;2024-02-15T14:34:36;14.33;;;13.93;;
673;SDS011;319;48.764;9.174;2024-02-15T14:37:06;14.30;;;13.90;;
673;SDS011;319;48.764;9.174;2024-02-15T14:39:33;14.73;;;14.33;;
673;SDS011;319;48.764;9.174;2024-02-15T14:42:00;14.50;;;14.10;;
673;SDS011;319;48.764;9.174;2024-02-15T14:44:28;16.57;;;16.17;;
673;SDS011;319;48.764;9.174;2024-02-15T14:46:55;13.80;;;13.40;;
673;SDS011;319;48.764;9.174;2024-02-15T14:49:22;14.20;;;13.80;;
673;SDS011;319;48.764;9.174;2024-02-15T14:51:49;13.60;;;13.20;;
673;SDS011;319;48.764;9.174;2024-02-15T14:54:16;14.13;;;13.73;;
673;SDS011;319;48.764;9.174;2024-02-15T14:56:44;13.90;;;13.50;;
673;SDS011;319;48.764;9.174;2024-02-15T14:59:10;14.23;;;13.83;;
673;SDS011;319;48.764;9.174;2024-02-15T15:01:39;14.27;;;13.87;;
673;SDS011;319;48.764;9.174;2024-02-15T15:04:06;14.30;;;13.90;;
673;SDS011;319;48.764;9.174;2024-02-15T15:06:35;13.17;;;12.87;;
673;SDS011;319;48.764;9.174;2024-02-15T15:09:19;14.50;;;14.10;;
673;SDS011;319;48.764;9.174;2024-02-15T15:12:04;15.00;;;14.60;;
673;SDS011;319;48.764;9.174;2024-02-15T15:14:48;14.43;;;14.03;;
673;SDS011;319;48.764;9.174;2024-02-15T15:17:16;14.50;;;14.10;;
673;SDS011;319;48.764;9.174;2024-02-15T15:19:46;14.50;;;14.10;;
673;SDS011;319;48.764;9.174;2024-02-15T15:22:12;14.70;;;14.30;;
673;SDS011;319;48.764;9.174;2024-02-15T15:24:39;14.10;;;13.70;;
673;SDS011;319;48.764;9.174;2024-02-15T15:27:06;14.17;;;13.77;;
673;SDS011;319;48.764;9.174;2024-02-15T15:29:33;14.40;;;14.00;;
673;SDS011;319;48.764;9.174;2024-02-15T15:32:00;13.97;;;13.57;;
673;SDS011;319;48.764;9.174;2024-02-15T15:34:28;15.10;;;14.70;;
673;SDS011;319;48.764;9.174;2024-02-15T15:36:55;15.30;;;14.90;;
673;SDS011;319;48.764;9.174;2024-02-15T15:39:22;14.70;;;14.30;;
673;SDS011;319;48.764;9.174;2024-02-15T15:41:51;14.33;;;13.93;;
673;SDS011;319;48.764;9.174;2024-02-15T15:44:19;14.00;;;13.60;;
673;SDS011;319;48.764;9.174;2024-02-15T15:46:48;14.50;;;14.10;;
673;SDS011;319;48.764;9.174;2024-02-15T15:49:16;14.80;;;14.40;;
673;SDS011;319;48.764;9.174;2024-02-15T15:51:45;14.10;;;13.70;;
673;SDS011;319;48.764;9.174;2024-02-15T15:54:14;14.50;;;14.10;;
673;SDS011;319;48.764;9.174;2024-02-15T15:56:43;14.50;;;14.10;;
673;SDS011;319;48.764;9.174;2024-02-15T15:59:10;15.07;;;14.67;;
673;SDS011;319;48.764;9.174;2024-02-15T16:01:36;14.43;;;14.03;;